• Join FlightAware (Why Join?)
  • Login
  • US Flag 
01:38PM EDT


 

Airport Tracker/Info


-or-


 

Live Flight TrackerFlight Track Log ✈ SWA3561 ✈ 11-May-2013 ✈ KDAL - KSAT

Flight Track Log - Related Links

Times and Time Zones

All times are in EDT time to prevent confusion due to time zone crossing. See the SWA3561 flight status page for this flight to view local times or setup timezone preferences in your user account.

Time Position Orientation Groundspeed Altitude Reporting Facility
EDT Latitude Longitude Course Direction KTS MPH feet Rate Location/Type
09:34AM 32.8500 -96.8667 185° South 156 180 1,400  Level Dallas / Fort Worth TRACON
09:35AM 32.8667 -96.8833 320° Northwest 176 203 2,100 2,160 Climbing Dallas / Fort Worth TRACON
09:36AM 32.9167 -96.9333 320° Northwest 244 281 4,500 1,980 Climbing Dallas / Fort Worth TRACON
09:37AM 32.9333 -96.8667 73° East 286 329 6,100 2,700 Climbing Dallas / Fort Worth TRACON
09:38AM 32.8381 -96.7631 138° Southeast 292 336 11,400 3,000 Climbing Fort Worth Center
09:39AM 32.7525 -96.7811 190° South 267 307 13,800 2,940 Climbing Fort Worth Center
09:40AM 32.5161 -97.0434 185° South  Level FlightAware Approximate
09:40AM 32.6672 -96.8433 212° Southwest 290 334 17,300  Level Fort Worth Center
09:41AM 32.5733 -96.8933 204° Southwest 356 410 20,100 2,760 Climbing Fort Worth Center
09:42AM 32.4922 -96.9406 206° Southwest 361 415 22,900 2,640 Climbing Fort Worth Center
09:43AM 32.3900 -97.0000 206° Southwest 366 421 25,400 2,400 Climbing Fort Worth Center
09:44AM 32.3108 -97.0447 206° Southwest 357 411 27,800 1,260 Climbing Fort Worth Center
09:45AM 32.1983 -97.0647 189° South 362 417 28,000 60 Climbing Fort Worth Center
09:46AM 32.0814 -97.0700 182° South 396 456 28,000  Level Fort Worth Center
09:47AM 31.9728 -97.0681 179° South 402 463 28,000  Level Fort Worth Center
09:48AM 31.8622 -97.0733 182° South 402 463 28,000  Level Fort Worth Center
09:50AM 31.6625 -97.0794 181° South 393 452 28,000  Level Houston Center
09:51AM 31.5514 -97.0828 181° South 393 452 28,000  Level Houston Center
09:52AM 31.4492 -97.1147 195° South 380 437 28,000  Level Houston Center
09:53AM 31.3483 -97.1544 199° South 377 434 28,000  Level Houston Center
09:54AM 31.2483 -97.1936 199° South 375 432 28,000  Level Houston Center
09:55AM 31.1497 -97.2325 199° South 371 427 28,000  Level Houston Center
09:56AM 31.0522 -97.2708 199° South 368 423 28,000  Level Houston Center
09:57AM 30.9500 -97.3114 199° South 374 430 28,000  Level Houston Center
09:58AM 30.8400 -97.3519 198° South 378 435 28,000  Level Houston Center
09:59AM 30.7447 -97.3883 198° South 364 419 28,000 -420 Level Houston Center
10:00AM 30.6483 -97.4264 199° South 361 415 27,200 -900 Descending Houston Center
10:01AM 30.5514 -97.4639 198° South 364 419 26,200 -1,020 Descending Houston Center
10:02AM 30.4514 -97.5019 198° South 373 429 25,200 -1,020 Descending Houston Center
10:03AM 30.3533 -97.5478 202° Southwest 378 435 24,200 -1,080 Descending Houston Center
10:04AM 30.2642 -97.6089 211° Southwest 371 427 23,100 -1,680 Descending Houston Center
10:06AM 30.1800 -97.6675 211° Southwest 353 406 20,800 -2,220 Descending Houston Center
10:06AM 30.1311 -97.7017 211° Southwest 338 389 19,400 -2,220 Descending Houston Center
10:07AM 30.1025 -97.7211 210° Southwest 327 376 18,600 -2,280 Descending Houston Center
10:08AM 30.0189 -97.7778 210° Southwest 320 368 16,300 -2,400 Descending Houston Center
10:09AM 29.9342 -97.8369 211° Southwest 331 381 13,800 -2,340 Descending Houston Center
10:10AM 29.8694 -97.9119 225° Southwest 337 388 11,600 -1,920 Descending Houston Center
10:11AM 29.8044 -97.9883 226° Southwest 331 381 10,000 -1,380 Descending Houston Center
10:12AM 29.7381 -98.0697 227° Southwest 271 312 8,600 -1,380 Descending Houston Center
10:13AM 29.6850 -98.1317 225° Southwest 272 313 7,000 -1,680 Descending Houston Center
10:14AM 29.6394 -98.1856 226° Southwest 272 313 5,500 -1,740 Descending Houston Center
10:14AM 29.6264 -98.2014 227° Southwest 273 314 5,100 -1,200 Descending Houston Center
10:15AM 29.5869 -98.2481 226° Southwest 271 312 4,300 -780 Descending Houston Center
10:16AM 29.5347 -98.3117 227° Southwest 255 293 3,700 -780 Descending Houston Center
10:17AM 29.4886 -98.3661 226° Southwest 240 276 2,800 -780 Descending Houston Center
10:18AM 29.4914 -98.4197 273° West 153 176 2,100 -840 Descending Houston Center
10:19AM 29.5167 -98.4506 313° West 145 167 1,200 -720 Descending Houston Center
10:20AM 29.5428 -98.4853 311° West 140 161 800 -420 Descending Houston Center